createdAt,value
2019-03-25T00:01:01.990Z,7.73
2019-03-25T00:03:52.217Z,6.50
2019-03-25T00:06:34.286Z,6.30
2019-03-25T00:09:12.705Z,7.00
2019-03-25T00:11:44.093Z,6.83
2019-03-25T00:14:23.359Z,6.90
2019-03-25T00:16:55.521Z,7.17
2019-03-25T00:19:34.109Z,6.40
2019-03-25T00:22:12.169Z,7.13
2019-03-25T00:24:45.925Z,6.17
2019-03-25T00:27:33.657Z,6.90
2019-03-25T00:30:11.774Z,6.90
2019-03-25T00:32:58.575Z,7.23
2019-03-25T00:35:42.489Z,7.53
2019-03-25T00:38:26.555Z,7.83
2019-03-25T00:41:07.256Z,7.37
2019-03-25T00:43:51.329Z,7.93
2019-03-25T00:46:38.438Z,7.53
2019-03-25T00:49:18.855Z,7.37
2019-03-25T00:52:02.418Z,7.67
2019-03-25T00:54:50.008Z,7.27
2019-03-25T00:57:32.420Z,7.20
2019-03-25T01:00:12.291Z,7.30
2019-03-25T01:03:01.370Z,7.10
2019-03-25T01:06:23.602Z,7.90
2019-03-25T01:09:11.965Z,8.00
2019-03-25T01:11:53.735Z,7.77
2019-03-25T01:21:19.934Z,7.80
2019-03-25T01:24:36.518Z,7.47
2019-03-25T01:28:08.756Z,6.80
2019-03-25T01:31:22.444Z,7.20
2019-03-25T01:34:42.245Z,7.00
2019-03-25T01:37:27.661Z,7.10
2019-03-25T01:39:59.155Z,7.20
2019-03-25T01:42:33.225Z,6.47
2019-03-25T01:45:10.526Z,6.63
2019-03-25T01:47:43.243Z,7.03
2019-03-25T01:50:16.229Z,6.70
2019-03-25T01:52:47.055Z,6.73
2019-03-25T01:55:21.977Z,6.43
2019-03-25T01:57:58.014Z,7.07
2019-03-25T02:00:29.531Z,6.93
2019-03-25T02:03:02.042Z,6.17
2019-03-25T02:05:34.375Z,6.40
2019-03-25T02:08:09.790Z,6.90
2019-03-25T02:10:42.656Z,6.43
2019-03-25T02:13:23.219Z,6.80
2019-03-25T02:15:56.411Z,6.57
2019-03-25T02:18:32.357Z,6.60
2019-03-25T02:21:07.837Z,6.57
2019-03-25T02:23:45.811Z,6.87
2019-03-25T02:26:19.134Z,7.27
2019-03-25T02:28:52.551Z,7.30
2019-03-25T02:31:26.258Z,7.53
2019-03-25T02:34:00.949Z,7.30
2019-03-25T02:36:33.559Z,7.30
2019-03-25T02:39:09.581Z,7.77
2019-03-25T02:41:43.378Z,8.03
2019-03-25T02:47:21.547Z,7.13
2019-03-25T02:49:56.184Z,7.23
2019-03-25T02:52:32.625Z,7.00
2019-03-25T02:55:08.755Z,8.00
2019-03-25T02:58:23.393Z,8.20
2019-03-25T03:01:06.797Z,8.53
2019-03-25T03:03:44.577Z,8.53
2019-03-25T03:06:14.719Z,8.03
2019-03-25T03:08:48.439Z,8.10
2019-03-25T03:11:19.111Z,8.37
2019-03-25T03:13:51.520Z,8.13
2019-03-25T03:16:26.914Z,9.00
2019-03-25T03:18:59.297Z,10.47
2019-03-25T03:21:33.437Z,10.63
2019-03-25T03:24:15.677Z,10.47
2019-03-25T03:26:49.048Z,10.80
2019-03-25T03:29:24.352Z,11.07
2019-03-25T03:31:58.856Z,10.10
2019-03-25T03:34:32.741Z,11.10
2019-03-25T03:37:31.273Z,11.13
2019-03-25T03:40:13.338Z,7.00
2019-03-25T03:42:48.191Z,9.67
2019-03-25T03:45:27.995Z,8.97
2019-03-25T03:48:05.965Z,10.97
2019-03-25T03:50:41.179Z,11.30
2019-03-25T03:56:12.810Z,9.53
2019-03-25T03:59:11.029Z,10.20
2019-03-25T04:01:46.475Z,9.57
2019-03-25T04:04:20.183Z,9.20
2019-03-25T04:06:52.953Z,9.63
2019-03-25T04:09:33.798Z,10.60
2019-03-25T04:12:13.910Z,9.37
2019-03-25T04:14:52.744Z,9.80
2019-03-25T04:17:33.861Z,9.17
2019-03-25T04:20:09.461Z,9.93
2019-03-25T04:22:57.326Z,9.33
2019-03-25T04:25:35.831Z,9.97
2019-03-25T04:28:08.964Z,9.00
2019-03-25T04:30:41.920Z,9.73
2019-03-25T04:33:14.457Z,9.60
2019-03-25T04:35:49.174Z,9.77
2019-03-25T04:38:23.373Z,8.73
2019-03-25T04:40:55.186Z,8.03
2019-03-25T04:43:26.492Z,8.33
2019-03-25T04:46:01.695Z,7.93
2019-03-25T04:48:32.396Z,8.43
2019-03-25T04:51:07.255Z,8.83
2019-03-25T04:53:53.419Z,8.03
2019-03-25T04:56:38.990Z,8.67
2019-03-25T04:59:05.579Z,11.17
2019-03-25T05:01:39.323Z,10.67
2019-03-25T05:04:21.599Z,10.87
2019-03-25T05:06:58.640Z,10.70
2019-03-25T05:09:34.015Z,11.90
2019-03-25T05:12:19.454Z,12.07
2019-03-25T05:15:06.338Z,13.37
2019-03-25T05:17:45.848Z,11.93
2019-03-25T05:20:32.723Z,12.40
2019-03-25T05:23:11.637Z,11.83
2019-03-25T05:25:57.211Z,12.13
2019-03-25T05:28:37.927Z,11.90
2019-03-25T05:31:15.328Z,10.83
2019-03-25T05:33:50.735Z,10.67
2019-03-25T05:36:24.781Z,8.97
2019-03-25T05:39:09.099Z,11.57
2019-03-25T05:41:44.019Z,11.53
2019-03-25T05:44:14.718Z,9.87
2019-03-25T05:46:50.443Z,8.77
2019-03-25T05:49:32.011Z,8.17
2019-03-25T05:52:16.341Z,8.87
2019-03-25T05:55:04.827Z,8.43
2019-03-25T05:57:40.411Z,7.73
2019-03-25T06:00:22.586Z,8.73
2019-03-25T06:03:11.227Z,8.40
2019-03-25T06:05:49.773Z,9.53
2019-03-25T06:08:23.737Z,12.00
2019-03-25T06:11:11.613Z,13.13
2019-03-25T06:13:57.473Z,12.80
2019-03-25T06:16:39.485Z,12.20
2019-03-25T06:19:14.573Z,10.50
2019-03-25T06:21:49.266Z,9.53
2019-03-25T06:24:22.609Z,16.03
2019-03-25T06:26:57.213Z,14.17
2019-03-25T06:29:39.786Z,17.60
2019-03-25T06:32:30.323Z,19.23
2019-03-25T06:35:18.742Z,20.33
2019-03-25T06:37:56.897Z,21.67
2019-03-25T06:40:29.944Z,16.97
2019-03-25T06:43:05.487Z,19.40
2019-03-25T06:45:38.547Z,18.87
2019-03-25T06:48:25.816Z,18.47
2019-03-25T06:51:10.793Z,19.80
2019-03-25T06:53:54.072Z,21.33
2019-03-25T06:56:44.507Z,20.93
2019-03-25T06:59:27.714Z,21.00
2019-03-25T07:02:16.647Z,20.13
2019-03-25T07:05:04.809Z,20.73
2019-03-25T07:07:44.721Z,19.90
2019-03-25T07:10:26.067Z,15.43
2019-03-25T07:12:57.429Z,16.50
2019-03-25T07:15:29.863Z,12.03
2019-03-25T07:18:01.445Z,9.43
2019-03-25T07:20:31.667Z,10.57
2019-03-25T07:23:03.056Z,10.63
2019-03-25T07:25:34.932Z,11.50
2019-03-25T07:28:06.307Z,12.10
2019-03-25T07:30:38.178Z,11.20
2019-03-25T07:33:09.278Z,12.57
2019-03-25T07:35:41.295Z,14.03
2019-03-25T07:38:13.945Z,13.63
2019-03-25T07:40:45.026Z,15.43
2019-03-25T07:43:20.234Z,14.57
2019-03-25T07:45:52.154Z,14.53
2019-03-25T07:48:22.925Z,15.07
2019-03-25T07:50:54.214Z,13.83
2019-03-25T07:53:27.910Z,15.23
2019-03-25T07:56:00.692Z,14.27
2019-03-25T07:58:30.865Z,15.20
2019-03-25T08:01:05.563Z,14.97
2019-03-25T08:03:37.180Z,16.20
2019-03-25T08:06:10.585Z,14.83
2019-03-25T08:08:41.994Z,13.50
2019-03-25T08:11:12.652Z,15.70
2019-03-25T08:13:47.302Z,15.37
2019-03-25T08:16:20.108Z,15.50
2019-03-25T08:18:52.875Z,14.83
2019-03-25T08:21:26.530Z,14.97
2019-03-25T08:24:00.304Z,14.87
2019-03-25T08:26:31.638Z,14.77
2019-03-25T08:29:01.660Z,16.07
2019-03-25T08:31:33.429Z,15.83
2019-03-25T08:34:09.617Z,14.83
2019-03-25T08:36:47.139Z,13.90
2019-03-25T08:39:23.567Z,14.20
2019-03-25T08:41:56.454Z,13.13
2019-03-25T08:44:27.725Z,13.57
2019-03-25T08:46:57.806Z,13.57
2019-03-25T08:49:29.715Z,12.00
2019-03-25T08:52:00.994Z,13.50
2019-03-25T08:54:31.265Z,10.23
2019-03-25T08:57:02.745Z,11.80
2019-03-25T08:59:32.497Z,10.30
2019-03-25T09:02:02.865Z,11.20
2019-03-25T09:04:34.944Z,10.10
2019-03-25T09:07:04.953Z,10.20
2019-03-25T09:09:37.616Z,9.80
2019-03-25T09:12:09.400Z,9.33
2019-03-25T09:14:41.180Z,9.27
2019-03-25T09:17:12.534Z,8.33
2019-03-25T09:19:43.637Z,9.80
2019-03-25T09:22:15.261Z,8.80
2019-03-25T09:24:46.771Z,9.20
2019-03-25T09:27:17.892Z,9.33
2019-03-25T09:29:48.064Z,8.30
2019-03-25T09:32:18.488Z,8.60
2019-03-25T09:34:48.611Z,8.77
2019-03-25T09:37:20.244Z,8.73
2019-03-25T09:39:50.971Z,8.63
2019-03-25T09:42:22.380Z,9.00
2019-03-25T09:44:53.030Z,8.83
2019-03-25T09:47:23.324Z,8.63
2019-03-25T09:49:53.704Z,7.90
2019-03-25T09:52:25.118Z,8.37
2019-03-25T09:54:55.079Z,6.90
2019-03-25T09:57:24.996Z,7.63
2019-03-25T09:59:57.056Z,7.67
2019-03-25T10:02:27.415Z,7.90
2019-03-25T10:05:00.344Z,7.40
2019-03-25T10:07:31.546Z,7.53
2019-03-25T10:10:01.812Z,7.37
2019-03-25T10:12:31.647Z,6.73
2019-03-25T10:15:03.003Z,6.97
2019-03-25T10:17:34.938Z,6.73
2019-03-25T10:20:07.739Z,6.77
2019-03-25T10:22:37.924Z,6.47
2019-03-25T10:25:11.985Z,6.40
2019-03-25T10:27:42.349Z,6.27
2019-03-25T10:30:16.088Z,6.43
2019-03-25T10:32:48.860Z,5.33
2019-03-25T10:35:19.387Z,5.47
2019-03-25T10:37:49.598Z,5.53
2019-03-25T10:40:21.252Z,5.70
2019-03-25T10:42:52.359Z,6.07
2019-03-25T10:45:22.461Z,5.73
2019-03-25T10:47:55.065Z,5.47
2019-03-25T10:50:25.378Z,6.03
2019-03-25T10:52:57.792Z,5.43
2019-03-25T10:55:30.893Z,7.17
2019-03-25T10:58:01.377Z,5.20
2019-03-25T11:00:31.377Z,5.77
2019-03-25T11:03:01.481Z,6.33
2019-03-25T11:05:33.106Z,6.23
2019-03-25T11:08:04.707Z,6.50
2019-03-25T11:10:35.360Z,5.40
2019-03-25T11:13:05.497Z,5.80
2019-03-25T11:15:37.012Z,5.70
2019-03-25T11:18:07.748Z,5.80
2019-03-25T11:20:38.902Z,5.97
2019-03-25T11:23:10.291Z,6.63
2019-03-25T11:25:40.903Z,6.93
2019-03-25T11:28:12.334Z,5.83
2019-03-25T11:30:52.225Z,6.20
2019-03-25T11:33:23.269Z,4.73
2019-03-25T11:35:54.739Z,5.67
2019-03-25T11:38:25.423Z,6.30
2019-03-25T11:40:55.955Z,7.30
2019-03-25T11:43:28.341Z,6.83
2019-03-25T11:45:58.896Z,6.77
2019-03-25T11:48:30.741Z,7.50
2019-03-25T11:51:06.212Z,6.47
2019-03-25T11:53:38.485Z,6.20
2019-03-25T11:56:11.720Z,5.67
2019-03-25T11:58:43.950Z,5.57
2019-03-25T12:01:15.162Z,6.00
2019-03-25T12:03:45.380Z,5.93
2019-03-25T12:06:16.764Z,5.70
2019-03-25T12:08:48.604Z,5.80
2019-03-25T12:11:18.558Z,5.77
2019-03-25T12:13:48.707Z,6.67
2019-03-25T12:16:21.193Z,6.27
2019-03-25T12:18:51.589Z,6.13
2019-03-25T12:21:23.649Z,5.70
2019-03-25T12:23:53.750Z,4.50
2019-03-25T12:26:23.886Z,4.20
2019-03-25T12:28:56.745Z,4.10
2019-03-25T12:31:29.880Z,4.63
2019-03-25T12:34:01.199Z,4.60
2019-03-25T12:36:33.204Z,3.63
2019-03-25T12:39:04.086Z,3.00
2019-03-25T12:41:35.897Z,3.20
2019-03-25T12:44:07.614Z,3.13
2019-03-25T12:46:38.777Z,2.63
2019-03-25T12:49:11.372Z,3.13
2019-03-25T12:51:50.196Z,3.03
2019-03-25T12:54:26.257Z,2.90
2019-03-25T12:57:05.053Z,3.13
2019-03-25T12:59:41.578Z,3.50
2019-03-25T13:02:26.273Z,3.30
2019-03-25T13:05:06.483Z,2.63
2019-03-25T13:07:44.219Z,2.90
2019-03-25T13:10:30.978Z,2.37
2019-03-25T13:13:02.314Z,2.63
2019-03-25T13:15:47.396Z,2.63
2019-03-25T13:18:24.307Z,2.77
2019-03-25T13:20:58.819Z,2.80
2019-03-25T13:23:34.916Z,2.80
2019-03-25T13:26:07.205Z,2.93
2019-03-25T13:28:37.662Z,3.10
2019-03-25T13:31:09.673Z,3.37
2019-03-25T13:33:40.166Z,2.77
2019-03-25T13:36:16.164Z,2.80
2019-03-25T13:38:46.507Z,2.17
2019-03-25T13:41:17.002Z,3.00
2019-03-25T13:43:47.634Z,3.30
2019-03-25T13:46:19.586Z,3.60
2019-03-25T13:48:50.201Z,3.03
2019-03-25T13:51:20.561Z,3.23
2019-03-25T13:53:53.821Z,3.02
2019-03-25T13:56:25.212Z,5.67
2019-03-25T13:58:55.928Z,5.03
2019-03-25T14:01:28.129Z,4.53
2019-03-25T14:03:58.799Z,5.17
2019-03-25T14:06:29.184Z,2.87
2019-03-25T14:08:59.147Z,3.40
2019-03-25T14:11:29.380Z,3.60
2019-03-25T14:14:00.319Z,3.00
2019-03-25T14:16:31.805Z,2.50
2019-03-25T14:19:05.838Z,3.30
2019-03-25T14:21:36.543Z,2.50
2019-03-25T14:24:08.845Z,2.47
2019-03-25T14:26:41.680Z,2.67
2019-03-25T14:29:11.747Z,3.30
2019-03-25T14:31:42.896Z,3.13
2019-03-25T14:34:16.313Z,3.30
2019-03-25T14:36:46.905Z,3.40
2019-03-25T14:39:18.661Z,3.10
2019-03-25T14:41:49.069Z,2.83
2019-03-25T14:44:19.757Z,2.27
2019-03-25T14:46:52.018Z,2.27
2019-03-25T14:49:23.502Z,2.93
2019-03-25T14:51:54.109Z,3.00
2019-03-25T14:54:27.183Z,4.50
2019-03-25T14:56:57.194Z,2.80
2019-03-25T14:59:29.777Z,4.70
2019-03-25T15:02:01.661Z,3.30
2019-03-25T15:04:31.882Z,3.80
2019-03-25T15:07:02.283Z,8.53
2019-03-25T15:09:33.775Z,14.20
2019-03-25T15:12:07.201Z,15.87
2019-03-25T15:14:38.360Z,23.23
2019-03-25T15:17:08.893Z,4.77
2019-03-25T15:19:40.051Z,4.10
2019-03-25T15:22:11.617Z,4.27
2019-03-25T15:24:41.893Z,2.60
2019-03-25T15:27:14.727Z,2.70
2019-03-25T15:30:06.938Z,2.63
2019-03-25T15:32:40.176Z,2.70
2019-03-25T15:35:11.448Z,2.67
2019-03-25T15:37:43.028Z,4.13
2019-03-25T15:40:16.211Z,2.90
2019-03-25T15:42:50.526Z,2.77
2019-03-25T15:45:22.678Z,2.80
2019-03-25T15:47:53.450Z,3.13
2019-03-25T15:50:24.159Z,2.47
2019-03-25T15:52:58.996Z,2.53
2019-03-25T15:55:33.022Z,2.70
2019-03-25T16:00:47.445Z,2.70
2019-03-25T16:03:17.391Z,2.70
2019-03-25T16:05:50.394Z,2.33
2019-03-25T16:08:22.283Z,2.40
2019-03-25T16:10:55.640Z,3.03
2019-03-25T16:13:28.078Z,3.30
2019-03-25T16:16:00.615Z,2.90
2019-03-25T16:18:38.272Z,2.63
2019-03-25T16:21:10.404Z,3.10
2019-03-25T16:23:44.191Z,3.10
2019-03-25T16:26:18.934Z,3.50
2019-03-25T16:28:51.549Z,4.03
2019-03-25T16:31:24.759Z,3.40
2019-03-25T16:33:57.009Z,3.70
2019-03-25T16:36:30.685Z,4.17
2019-03-25T16:39:05.767Z,4.10
2019-03-25T16:41:40.475Z,4.53
2019-03-25T16:44:15.731Z,4.50
2019-03-25T16:46:52.195Z,4.07
2019-03-25T16:49:25.528Z,4.27
2019-03-25T16:51:58.824Z,4.13
2019-03-25T16:54:32.348Z,3.57
2019-03-25T16:57:06.974Z,3.90
2019-03-25T16:59:41.472Z,3.43
2019-03-25T17:02:12.496Z,3.70
2019-03-25T17:04:44.181Z,4.30
2019-03-25T17:07:17.335Z,3.90
2019-03-25T17:09:50.534Z,3.60
2019-03-25T17:12:24.325Z,3.37
2019-03-25T17:14:57.970Z,3.77
2019-03-25T17:17:31.294Z,3.83
2019-03-25T17:20:03.910Z,4.50
2019-03-25T17:22:36.488Z,3.90
2019-03-25T17:25:11.347Z,3.37
2019-03-25T17:27:44.311Z,3.23
2019-03-25T17:30:17.093Z,3.83
2019-03-25T17:32:49.703Z,3.90
2019-03-25T17:35:23.979Z,4.27
2019-03-25T17:37:59.610Z,4.10
2019-03-25T17:40:33.064Z,4.33
2019-03-25T17:43:05.813Z,4.23
2019-03-25T17:45:42.101Z,4.87
2019-03-25T17:48:15.784Z,5.03
2019-03-25T17:50:48.577Z,4.53
2019-03-25T17:53:21.749Z,4.27
2019-03-25T17:55:55.255Z,4.00
2019-03-25T17:58:29.601Z,4.07
2019-03-25T18:01:03.262Z,4.43
2019-03-25T18:03:36.614Z,4.23
2019-03-25T18:06:10.885Z,4.00
2019-03-25T18:08:45.062Z,4.57
2019-03-25T18:11:16.910Z,3.73
2019-03-25T18:13:48.679Z,4.13
2019-03-25T18:16:22.289Z,3.57
2019-03-25T18:18:55.635Z,6.67
2019-03-25T18:21:26.438Z,4.30
2019-03-25T18:24:00.274Z,4.87
2019-03-25T18:26:32.431Z,4.93
2019-03-25T18:29:07.817Z,4.57
2019-03-25T18:31:43.999Z,4.90
2019-03-25T18:34:15.833Z,5.63
2019-03-25T18:36:47.707Z,5.43
2019-03-25T18:39:20.268Z,5.63
2019-03-25T18:41:56.203Z,5.90
2019-03-25T18:44:28.903Z,4.10
2019-03-25T18:47:01.934Z,4.97
2019-03-25T18:49:35.692Z,5.80
2019-03-25T18:52:08.323Z,6.53
2019-03-25T18:54:43.174Z,4.77
2019-03-25T18:57:15.787Z,6.93
2019-03-25T18:59:46.726Z,6.07
2019-03-25T19:02:20.798Z,6.50
2019-03-25T19:04:53.167Z,6.90
2019-03-25T19:07:27.282Z,7.00
2019-03-25T19:09:59.977Z,6.60
2019-03-25T19:12:32.705Z,6.70
2019-03-25T19:15:07.208Z,6.33
2019-03-25T19:17:41.114Z,6.50
2019-03-25T19:20:22.408Z,6.70
2019-03-25T19:22:54.194Z,4.30
2019-03-25T19:25:27.507Z,7.70
2019-03-25T19:27:59.965Z,7.77
2019-03-25T19:30:36.467Z,7.70
2019-03-25T19:33:09.706Z,7.37
2019-03-25T19:35:45.504Z,7.63
2019-03-25T19:38:24.277Z,7.60
2019-03-25T19:41:32.257Z,7.20
2019-03-25T19:44:07.161Z,7.70
2019-03-25T19:46:54.768Z,8.70
2019-03-25T19:49:53.956Z,6.97
2019-03-25T20:02:22.456Z,8.00
2019-03-25T20:12:27.072Z,9.50
2019-03-25T20:15:17.419Z,7.43
2019-03-25T20:18:30.062Z,9.13
2019-03-25T20:21:20.986Z,9.63
2019-03-25T20:30:32.934Z,10.30
2019-03-25T20:33:24.628Z,9.00
2019-03-25T20:36:12.404Z,9.63
2019-03-25T20:39:02.729Z,9.67
2019-03-25T20:42:09.849Z,10.03
2019-03-25T20:44:51.284Z,9.03
2019-03-25T20:47:45.442Z,8.67
2019-03-25T20:53:30.898Z,8.83
2019-03-25T20:56:47.628Z,9.83
2019-03-25T20:59:27.986Z,10.63
2019-03-25T21:02:07.181Z,9.80
2019-03-25T21:04:50.307Z,10.17
2019-03-25T21:07:44.500Z,11.17
2019-03-25T21:10:41.987Z,10.77
2019-03-25T21:16:50.738Z,10.73
2019-03-25T21:19:29.834Z,10.47
2019-03-25T21:22:07.988Z,10.90
2019-03-25T21:24:53.388Z,10.43
2019-03-25T21:27:47.099Z,10.83
2019-03-25T21:30:23.122Z,9.97
2019-03-25T21:32:58.424Z,10.27
2019-03-25T21:35:44.598Z,10.40
2019-03-25T21:38:18.714Z,11.77
2019-03-25T21:41:05.709Z,11.20
2019-03-25T21:43:40.226Z,10.90
2019-03-25T21:46:12.002Z,11.57
2019-03-25T21:48:44.187Z,11.07
2019-03-25T21:51:19.357Z,9.73
2019-03-25T21:53:53.284Z,10.17
2019-03-25T21:56:26.066Z,10.10
2019-03-25T22:14:08.411Z,10.80
2019-03-25T22:22:56.342Z,10.10
2019-03-25T22:25:29.989Z,10.37
2019-03-25T22:28:11.523Z,10.10
2019-03-25T22:30:46.318Z,10.30
2019-03-25T22:33:25.687Z,9.43
2019-03-25T22:35:52.523Z,9.87
2019-03-25T22:38:34.422Z,9.67
2019-03-25T22:41:09.681Z,10.23
2019-03-25T22:43:41.847Z,9.90
2019-03-25T22:46:13.442Z,10.33
2019-03-25T22:48:46.201Z,10.07
2019-03-25T22:51:19.217Z,9.70
2019-03-25T22:53:52.671Z,9.63
2019-03-25T22:56:26.370Z,9.47
2019-03-25T22:59:03.458Z,9.93
2019-03-25T23:01:36.990Z,9.80
2019-03-25T23:04:15.614Z,9.87
2019-03-25T23:06:48.593Z,9.83
2019-03-25T23:09:20.352Z,10.17
2019-03-25T23:11:50.493Z,10.13
2019-03-25T23:14:21.395Z,10.23
2019-03-25T23:16:55.112Z,9.90
2019-03-25T23:19:27.181Z,10.27
2019-03-25T23:21:58.808Z,8.77
2019-03-25T23:24:31.454Z,9.47
2019-03-25T23:27:10.489Z,9.40
2019-03-25T23:29:48.840Z,9.00
2019-03-25T23:32:31.629Z,9.27
2019-03-25T23:35:06.501Z,7.60
2019-03-25T23:37:50.547Z,9.13
2019-03-25T23:40:33.040Z,9.20
2019-03-25T23:43:23.072Z,8.97
2019-03-25T23:46:08.763Z,8.07
2019-03-25T23:48:41.508Z,8.80
2019-03-25T23:51:13.492Z,8.50
2019-03-25T23:53:52.773Z,8.93
2019-03-25T23:56:28.359Z,8.50
2019-03-25T23:59:00.188Z,9.10
